createdAt,value
2018-12-01T01:15:12.842Z,1.82
2018-12-01T01:17:44.830Z,1.86
2018-12-01T01:20:17.804Z,1.93
2018-12-01T01:22:48.523Z,1.75
2018-12-01T01:50:11.359Z,1.86
2018-12-01T01:52:41.360Z,1.80
2018-12-01T01:55:12.094Z,1.67
2018-12-01T01:57:42.490Z,1.77
2018-12-01T02:00:19.908Z,1.90
2018-12-01T02:02:51.522Z,1.89
2018-12-01T02:05:23.257Z,1.79
2018-12-01T02:07:53.430Z,1.86
2018-12-01T02:10:23.660Z,1.93
2018-12-01T02:12:53.809Z,1.93
2018-12-01T02:15:23.788Z,1.92
2018-12-01T02:17:53.769Z,1.92
2018-12-01T02:20:23.381Z,2.01
2018-12-01T02:22:53.073Z,2.00
2018-12-01T02:25:22.714Z,2.06
2018-12-01T02:27:52.332Z,2.07
2018-12-01T02:30:22.174Z,2.15
2018-12-01T02:32:52.059Z,2.11
2018-12-01T02:35:25.133Z,2.17
2018-12-01T02:37:55.454Z,2.03
2018-12-01T02:40:27.294Z,1.99
2018-12-01T02:42:57.290Z,2.10
2018-12-01T02:45:43.982Z,2.14
2018-12-01T02:48:14.362Z,2.17
2018-12-01T02:50:44.794Z,2.15
2018-12-01T02:53:14.687Z,2.19
2018-12-01T02:55:44.933Z,2.11
2018-12-01T02:58:15.244Z,2.10
2018-12-01T03:00:47.301Z,2.07
2018-12-01T03:03:17.226Z,2.15
2018-12-01T03:05:47.166Z,2.19
2018-12-01T03:08:17.059Z,2.21
2018-12-01T03:10:46.605Z,2.13
2018-12-01T03:13:16.592Z,2.09
2018-12-01T03:15:46.135Z,2.10
2018-12-01T03:18:16.061Z,2.13
2018-12-01T03:20:46.008Z,2.17
2018-12-01T03:23:15.883Z,2.13
2018-12-01T03:25:45.882Z,2.21
2018-12-01T03:28:15.733Z,2.20
2018-12-01T03:30:45.330Z,2.17
2018-12-01T03:33:15.317Z,2.09
2018-12-01T03:35:45.129Z,2.09
2018-12-01T03:38:15.143Z,2.17
2018-12-01T03:40:48.915Z,2.24
2018-12-01T03:43:18.771Z,2.23
2018-12-01T03:45:48.729Z,2.16
2018-12-01T03:48:18.681Z,2.18
2018-12-01T03:50:48.597Z,2.04
2018-12-01T03:53:18.663Z,2.11
2018-12-01T03:55:48.485Z,2.15
2018-12-01T03:58:18.400Z,2.21
2018-12-01T04:00:48.321Z,2.29
2018-12-01T04:03:18.257Z,2.29
2018-12-01T04:05:48.132Z,2.35
2018-12-01T04:08:18.129Z,2.31
2018-12-01T04:10:48.124Z,2.29
2018-12-01T04:13:17.660Z,2.27
2018-12-01T04:15:47.607Z,2.18
2018-12-01T04:18:17.544Z,2.22
2018-12-01T04:20:47.100Z,2.30
2018-12-01T04:23:17.041Z,2.16
2018-12-01T04:25:46.987Z,2.18
2018-12-01T04:28:16.893Z,2.25
2018-12-01T04:30:46.729Z,2.35
2018-12-01T04:33:16.561Z,2.37
2018-12-01T04:35:46.092Z,2.37
2018-12-01T04:38:16.176Z,2.39
2018-12-01T04:40:46.334Z,2.48
2018-12-01T04:43:16.217Z,2.56
2018-12-01T04:45:45.747Z,2.55
2018-12-01T04:48:15.620Z,2.46
2018-12-01T04:50:45.083Z,2.50
2018-12-01T04:53:14.956Z,2.52
2018-12-01T04:55:44.804Z,2.52
2018-12-01T04:58:14.694Z,2.56
2018-12-01T05:00:44.620Z,2.48
2018-12-01T05:03:14.579Z,2.44
2018-12-01T05:05:44.137Z,2.44
2018-12-01T05:08:14.128Z,2.40
2018-12-01T05:10:43.615Z,2.42
2018-12-01T05:13:13.486Z,2.47
2018-12-01T05:15:43.284Z,2.47
2018-12-01T05:18:13.108Z,2.46
2018-12-01T05:20:43.005Z,2.48
2018-12-01T05:23:12.835Z,2.39
2018-12-01T05:25:42.281Z,2.47
2018-12-01T05:28:11.667Z,2.50
2018-12-01T05:30:41.464Z,2.49
2018-12-01T05:33:11.230Z,2.55
2018-12-01T05:35:40.810Z,2.55
2018-12-01T05:38:10.695Z,2.52
2018-12-01T05:40:40.616Z,2.56
2018-12-01T05:43:10.007Z,2.61
2018-12-01T05:45:39.824Z,2.67
2018-12-01T05:48:09.595Z,2.83
2018-12-01T05:50:39.423Z,2.74
2018-12-01T05:53:09.219Z,2.74
2018-12-01T05:55:39.056Z,2.62
2018-12-01T05:58:08.909Z,2.61
2018-12-01T06:00:38.763Z,2.69
2018-12-01T06:03:08.743Z,2.75
2018-12-01T06:05:38.562Z,2.75
2018-12-01T06:08:08.916Z,2.84
2018-12-01T06:10:38.807Z,2.87
2018-12-01T06:13:08.536Z,2.95
2018-12-01T06:15:38.295Z,2.89
2018-12-01T06:18:08.169Z,2.94
2018-12-01T06:20:37.714Z,3.02
2018-12-01T06:23:08.068Z,3.05
2018-12-01T06:25:37.931Z,3.12
2018-12-01T06:28:07.463Z,3.02
2018-12-01T06:30:36.886Z,2.97
2018-12-01T06:33:06.587Z,3.04
2018-12-01T06:35:36.323Z,3.08
2018-12-01T06:38:06.395Z,3.09
2018-12-01T06:40:37.143Z,3.17
2018-12-01T06:43:07.559Z,3.17
2018-12-01T06:45:37.455Z,3.18
2018-12-01T06:48:08.447Z,3.16
2018-12-01T06:50:38.493Z,3.19
2018-12-01T06:53:12.140Z,3.22
2018-12-01T06:55:41.614Z,3.16
2018-12-01T06:58:11.545Z,3.03
2018-12-01T07:00:41.007Z,2.97
2018-12-01T07:03:10.529Z,2.95
2018-12-01T07:05:40.208Z,3.02
2018-12-01T07:08:10.130Z,3.07
2018-12-01T07:10:41.181Z,3.14
2018-12-01T07:13:10.790Z,3.09
2018-12-01T07:15:41.861Z,3.07
2018-12-01T07:18:28.436Z,3.02
2018-12-01T07:20:57.931Z,3.08
2018-12-01T07:23:27.748Z,3.21
2018-12-01T07:25:57.591Z,3.26
2018-12-01T07:28:27.423Z,3.27
2018-12-01T07:30:57.399Z,3.31
2018-12-01T07:33:27.695Z,3.25
2018-12-01T07:35:57.571Z,3.21
2018-12-01T07:38:27.430Z,3.31
2018-12-01T07:40:56.981Z,3.34
2018-12-01T07:43:26.743Z,3.53
2018-12-01T07:45:56.318Z,3.65
2018-12-01T07:48:26.974Z,3.73
2018-12-01T07:50:56.707Z,3.70
2018-12-01T07:53:26.222Z,3.73
2018-12-01T07:55:56.236Z,3.83
2018-12-01T07:58:26.247Z,3.94
2018-12-01T08:00:56.344Z,4.02
2018-12-01T08:03:26.993Z,3.99
2018-12-01T08:05:57.508Z,3.97
2018-12-01T08:08:27.339Z,4.07
2018-12-01T08:10:58.754Z,4.16
2018-12-01T08:13:28.803Z,4.24
2018-12-01T08:15:59.276Z,4.23
2018-12-01T08:18:29.385Z,4.09
2018-12-01T08:20:59.346Z,4.20
2018-12-01T08:23:29.812Z,4.34
2018-12-01T08:26:00.152Z,4.51
2018-12-01T08:28:30.208Z,4.61
2018-12-01T08:31:00.042Z,4.78
2018-12-01T08:33:29.819Z,4.72
2018-12-01T08:35:59.688Z,4.53
2018-12-01T08:38:29.748Z,4.67
2018-12-01T08:41:01.961Z,4.23
2018-12-01T08:43:38.238Z,4.58
2018-12-01T08:46:12.882Z,4.71
2018-12-01T08:48:47.608Z,4.71
2018-12-01T08:51:23.018Z,4.81
2018-12-01T08:54:05.833Z,4.85
2018-12-01T09:00:25.963Z,5.04
2018-12-01T09:05:51.202Z,4.85
2018-12-01T09:08:34.339Z,4.13
2018-12-01T09:11:20.581Z,4.98
2018-12-01T09:14:00.563Z,5.02
2018-12-01T09:16:33.185Z,5.18
2018-12-01T09:19:14.131Z,5.28
2018-12-01T09:21:45.182Z,5.63
2018-12-01T09:24:16.363Z,5.79
2018-12-01T09:26:55.455Z,5.61
2018-12-01T09:29:37.663Z,5.87
2018-12-01T09:32:09.894Z,5.87
2018-12-01T09:35:06.598Z,5.90
2018-12-01T09:38:08.859Z,5.81
2018-12-01T09:40:42.356Z,5.96
2018-12-01T09:43:17.481Z,6.02
2018-12-01T09:45:52.643Z,6.06
2018-12-01T09:48:26.421Z,6.27
2018-12-01T09:51:03.769Z,6.21
2018-12-01T09:53:38.054Z,6.17
2018-12-01T09:56:17.087Z,6.26
2018-12-01T09:58:46.995Z,5.94
2018-12-01T10:01:16.808Z,5.83
2018-12-01T10:03:46.639Z,5.74
2018-12-01T10:06:16.527Z,5.71
2018-12-01T10:08:46.387Z,5.76
2018-12-01T10:11:16.253Z,5.77
2018-12-01T10:13:46.126Z,5.95
2018-12-01T10:16:16.899Z,5.74
2018-12-01T10:18:46.823Z,5.90
2018-12-01T10:21:16.705Z,6.17
2018-12-01T10:23:46.453Z,6.16
2018-12-01T10:26:16.311Z,6.06
2018-12-01T10:28:46.172Z,5.91
2018-12-01T10:31:16.329Z,5.98
2018-12-01T10:33:46.498Z,5.97
2018-12-01T10:36:16.551Z,5.81
2018-12-01T10:38:46.519Z,6.03
2018-12-01T10:41:16.506Z,6.08
2018-12-01T10:43:46.327Z,6.12
2018-12-01T10:46:16.083Z,6.07
2018-12-01T10:48:45.907Z,6.26
2018-12-01T10:51:23.271Z,6.18
2018-12-01T10:54:02.446Z,6.59
2018-12-01T10:57:22.199Z,6.92
2018-12-01T11:06:13.970Z,7.12
2018-12-01T11:08:45.486Z,7.28
2018-12-01T11:11:20.543Z,7.13
2018-12-01T11:13:52.534Z,7.16
2018-12-01T11:19:30.194Z,8.00
2018-12-01T11:32:49.251Z,6.52
2018-12-01T11:41:55.994Z,6.04
2018-12-01T11:44:27.706Z,6.09
2018-12-01T11:46:57.936Z,6.21
2018-12-01T11:49:28.953Z,6.32
2018-12-01T11:51:59.097Z,6.44
2018-12-01T11:54:30.379Z,6.65
2018-12-01T11:57:00.514Z,6.91
2018-12-01T11:59:30.303Z,6.98
2018-12-01T12:02:01.282Z,7.09
2018-12-01T12:04:31.469Z,7.30
2018-12-01T12:07:01.597Z,7.18
2018-12-01T12:09:31.641Z,7.13
2018-12-01T12:12:01.462Z,7.01
2018-12-01T12:14:32.025Z,6.94
2018-12-01T12:17:01.958Z,7.05
2018-12-01T12:19:31.911Z,7.28
2018-12-01T12:22:02.111Z,7.48
2018-12-01T12:24:32.011Z,7.58
2018-12-01T12:27:01.893Z,7.66
2018-12-01T12:29:32.048Z,7.72
2018-12-01T12:32:02.319Z,7.83
2018-12-01T12:34:32.594Z,8.15
2018-12-01T12:37:02.891Z,8.06
2018-12-01T12:39:33.197Z,8.09
2018-12-01T12:42:04.766Z,8.24
2018-12-01T12:44:34.747Z,8.30
2018-12-01T12:47:05.033Z,8.50
2018-12-01T12:49:34.970Z,8.50
2018-12-01T12:52:05.052Z,8.30
2018-12-01T12:54:34.981Z,8.25
2018-12-01T12:57:04.851Z,8.23
2018-12-01T12:59:34.725Z,8.05
2018-12-01T13:02:04.597Z,7.83
2018-12-01T13:04:34.446Z,7.81
2018-12-01T13:07:04.319Z,7.66
2018-12-01T13:09:34.074Z,7.69
2018-12-01T13:12:03.917Z,7.93
2018-12-01T13:14:33.743Z,7.91
2018-12-01T13:17:03.613Z,7.82
2018-12-01T13:19:33.355Z,7.63
2018-12-01T13:22:03.262Z,7.55
2018-12-01T13:24:33.140Z,7.58
2018-12-01T13:27:03.172Z,7.57
2018-12-01T13:29:33.440Z,7.56
2018-12-01T13:32:10.461Z,7.54
2018-12-01T13:34:40.500Z,7.53
2018-12-01T13:37:10.500Z,7.53
2018-12-01T13:39:40.412Z,7.57
2018-12-01T13:42:10.225Z,7.51
2018-12-01T13:44:40.316Z,7.43
2018-12-01T13:47:10.399Z,7.38
2018-12-01T13:49:40.209Z,7.38
2018-12-01T13:52:10.047Z,7.36
2018-12-01T13:54:41.421Z,7.36
2018-12-01T13:57:13.907Z,7.37
2018-12-01T13:59:48.232Z,7.33
2018-12-01T14:02:21.413Z,7.34
2018-12-01T14:04:51.184Z,7.33
2018-12-01T14:07:21.006Z,7.39
2018-12-01T14:09:50.820Z,7.41
2018-12-01T14:12:20.567Z,7.34
2018-12-01T14:14:50.454Z,7.26
2018-12-01T14:17:20.246Z,7.23
2018-12-01T14:19:50.137Z,7.16
2018-12-01T14:22:20.200Z,7.25
2018-12-01T14:24:50.099Z,7.25
2018-12-01T14:27:19.992Z,7.30
2018-12-01T14:29:49.869Z,7.26
2018-12-01T14:32:19.696Z,7.25
2018-12-01T14:34:50.461Z,7.21
2018-12-01T14:37:19.866Z,7.17
2018-12-01T14:39:49.840Z,7.00
2018-12-01T14:42:19.980Z,6.98
2018-12-01T14:44:49.936Z,6.93
2018-12-01T14:47:19.864Z,6.89
2018-12-01T14:49:49.715Z,6.89
2018-12-01T14:52:22.892Z,6.85
2018-12-01T14:54:53.422Z,6.80
2018-12-01T14:57:23.272Z,6.81
2018-12-01T14:59:53.380Z,6.81
2018-12-01T15:02:23.192Z,6.75
2018-12-01T15:04:53.034Z,6.85
2018-12-01T15:07:22.952Z,6.82
2018-12-01T15:09:52.880Z,6.75
2018-12-01T15:12:22.998Z,6.69
2018-12-01T15:14:52.935Z,6.67
2018-12-01T15:17:23.511Z,6.67
2018-12-01T15:19:53.560Z,6.65
2018-12-01T15:22:24.362Z,6.59
2018-12-01T15:24:54.733Z,6.53
2018-12-01T15:27:24.737Z,6.62
2018-12-01T15:29:54.716Z,6.68
2018-12-01T15:32:24.813Z,6.67
2018-12-01T15:34:54.441Z,6.71
2018-12-01T15:37:24.642Z,6.71
2018-12-01T15:39:54.740Z,6.74
2018-12-01T15:42:28.777Z,6.75
2018-12-01T15:44:59.144Z,6.81
2018-12-01T15:47:40.354Z,6.76
2018-12-01T15:50:18.281Z,6.71
2018-12-01T15:52:51.761Z,6.65
2018-12-01T15:55:22.165Z,6.67
2018-12-01T15:57:55.557Z,6.77
2018-12-01T16:00:27.832Z,6.63
2018-12-01T16:02:58.094Z,6.62
2018-12-01T16:05:29.995Z,6.54
2018-12-01T16:08:00.296Z,6.49
2018-12-01T16:10:33.310Z,6.45
2018-12-01T16:13:10.594Z,6.44
2018-12-01T16:15:43.343Z,6.33
2018-12-01T16:18:12.912Z,6.35
2018-12-01T16:20:45.374Z,6.38
2018-12-01T16:23:36.099Z,6.33
2018-12-01T16:26:06.315Z,6.24
2018-12-01T16:28:36.574Z,6.24
2018-12-01T16:31:07.258Z,6.24
2018-12-01T16:33:37.724Z,6.28
2018-12-01T16:36:08.102Z,6.29
2018-12-01T16:38:38.655Z,6.29
2018-12-01T16:41:46.185Z,6.28
2018-12-01T16:44:16.048Z,6.24
2018-12-01T16:46:46.500Z,6.24
2018-12-01T16:49:34.636Z,6.17
2018-12-01T16:52:04.754Z,6.16
2018-12-01T16:54:41.598Z,6.14
2018-12-01T16:57:18.454Z,6.14
2018-12-01T17:00:07.355Z,6.10
2018-12-01T17:02:43.208Z,6.11
2018-12-01T17:06:22.936Z,6.19
2018-12-01T17:15:05.818Z,6.17
2018-12-01T17:17:43.778Z,6.18
2018-12-01T17:20:21.492Z,6.17
2018-12-01T17:23:00.311Z,6.11
2018-12-01T17:25:36.698Z,6.13
2018-12-01T17:28:15.996Z,6.13
2018-12-01T17:30:52.811Z,6.09
2018-12-01T17:33:29.588Z,6.10
2018-12-01T17:36:07.216Z,6.03
2018-12-01T17:38:43.717Z,5.91
2018-12-01T17:41:29.902Z,5.78
2018-12-01T17:44:20.868Z,5.65
2018-12-01T17:46:56.526Z,5.50
2018-12-01T17:49:33.439Z,5.42
2018-12-01T17:52:12.275Z,5.33
2018-12-01T17:54:54.673Z,5.25
2018-12-01T17:57:31.783Z,5.14
2018-12-01T18:00:10.689Z,4.99
2018-12-01T18:02:46.206Z,4.82
2018-12-01T18:05:21.949Z,4.77
2018-12-01T18:07:52.081Z,4.75
2018-12-01T18:10:22.069Z,4.78
2018-12-01T18:12:52.286Z,4.68
2018-12-01T18:15:22.452Z,4.66
2018-12-01T18:17:55.050Z,4.73
2018-12-01T18:20:25.166Z,4.64
2018-12-01T18:23:02.703Z,4.57
2018-12-01T18:25:37.847Z,4.51
2018-12-01T18:28:09.150Z,4.42
2018-12-01T18:30:40.686Z,4.35
2018-12-01T18:33:22.527Z,4.33
2018-12-01T18:35:52.474Z,4.22
2018-12-01T18:38:22.269Z,4.19
2018-12-01T18:40:52.210Z,4.16
2018-12-01T18:43:22.050Z,4.14
2018-12-01T18:45:54.713Z,4.06
2018-12-01T18:48:24.521Z,3.96
2018-12-01T18:50:55.693Z,3.94
2018-12-01T18:53:25.967Z,3.86
2018-12-01T18:55:58.090Z,3.94
2018-12-01T18:58:30.883Z,4.00
2018-12-01T19:01:01.174Z,3.96
2018-12-01T19:03:34.157Z,3.94
2018-12-01T19:06:36.421Z,3.88
2018-12-01T19:09:08.605Z,3.86
2018-12-01T19:11:46.231Z,3.73
2018-12-01T19:14:16.141Z,3.62
2018-12-01T19:16:46.073Z,3.54
2018-12-01T19:19:15.780Z,3.47
2018-12-01T19:21:45.719Z,3.45
2018-12-01T19:24:15.609Z,3.48
2018-12-01T19:26:45.525Z,3.40
2018-12-01T19:29:16.060Z,3.33
2018-12-01T19:31:52.103Z,3.29
2018-12-01T19:34:22.338Z,3.25
2018-12-01T19:36:58.701Z,3.30
2018-12-01T19:39:28.945Z,3.22
2018-12-01T19:41:58.964Z,3.21
2018-12-01T19:44:28.632Z,3.17
2018-12-01T19:46:59.446Z,3.13
2018-12-01T19:49:29.593Z,3.11
2018-12-01T19:51:59.654Z,3.03
2018-12-01T19:54:29.617Z,3.11
2018-12-01T19:57:00.490Z,3.17
2018-12-01T19:59:30.799Z,3.08
2018-12-01T20:02:02.173Z,3.02
2018-12-01T20:04:32.630Z,3.08
2018-12-01T20:07:07.452Z,3.01
2018-12-01T20:09:39.063Z,3.03
2018-12-01T20:12:09.937Z,3.08
2018-12-01T20:14:41.111Z,3.10
2018-12-01T20:17:11.949Z,2.96
2018-12-01T20:19:42.018Z,2.93
2018-12-01T20:22:13.968Z,2.86
2018-12-01T20:24:43.937Z,2.77
2018-12-01T20:27:14.293Z,2.71
2018-12-01T20:29:44.192Z,2.60
2018-12-01T20:32:14.278Z,2.59
2018-12-01T20:34:44.131Z,2.61
2018-12-01T20:37:18.717Z,2.77
2018-12-01T20:39:50.302Z,2.68
2018-12-01T20:42:23.931Z,2.72
2018-12-01T20:44:54.700Z,2.71
2018-12-01T20:47:24.748Z,2.64
2018-12-01T20:49:56.804Z,2.58
2018-12-01T20:52:26.721Z,2.49
2018-12-01T20:54:59.578Z,2.42
2018-12-01T20:57:31.973Z,2.38
2018-12-01T21:00:04.178Z,2.34
2018-12-01T21:02:35.574Z,1.91
2018-12-01T21:05:05.257Z,2.16
2018-12-01T21:07:35.521Z,2.10
2018-12-01T21:10:09.388Z,2.33
2018-12-01T21:12:39.204Z,2.36
2018-12-01T21:15:13.691Z,2.46
2018-12-01T21:17:46.448Z,2.48
2018-12-01T21:20:19.690Z,2.50
2018-12-01T21:22:52.925Z,2.56
2018-12-01T21:25:26.815Z,2.49
2018-12-01T21:27:59.385Z,2.55
2018-12-01T21:30:31.121Z,2.51
2018-12-01T21:33:07.592Z,2.57
2018-12-01T21:35:41.303Z,2.63
2018-12-01T21:38:52.312Z,2.75
2018-12-01T21:41:28.774Z,2.67
2018-12-01T21:44:22.616Z,2.56
2018-12-01T21:46:57.518Z,2.54
2018-12-01T21:49:27.793Z,2.73
2018-12-01T21:52:08.175Z,2.60
2018-12-01T21:54:51.228Z,2.61
2018-12-01T22:00:32.235Z,2.64
2018-12-01T22:03:16.243Z,2.57
2018-12-01T22:06:12.804Z,2.56
2018-12-01T22:08:42.975Z,2.53
2018-12-01T22:11:14.172Z,2.62
2018-12-01T22:13:54.068Z,2.59
2018-12-01T22:16:25.481Z,2.63
2018-12-01T22:18:55.560Z,2.53
2018-12-01T22:21:26.120Z,2.54
2018-12-01T22:23:57.496Z,2.65
2018-12-01T22:26:27.351Z,2.66
2018-12-01T22:28:57.653Z,2.69
2018-12-01T22:31:28.447Z,2.57
2018-12-01T22:33:58.490Z,2.62
2018-12-01T22:36:30.901Z,2.50
2018-12-01T22:39:01.077Z,2.48
2018-12-01T22:41:31.441Z,2.45
2018-12-01T22:44:01.164Z,2.40
2018-12-01T22:46:31.063Z,2.28
2018-12-01T22:49:00.891Z,2.29
2018-12-01T22:51:30.688Z,2.28
2018-12-01T22:54:00.524Z,2.21
2018-12-01T22:56:30.970Z,2.16
2018-12-01T22:59:00.795Z,2.22
2018-12-01T23:01:31.285Z,2.13
2018-12-01T23:04:02.002Z,2.21
2018-12-01T23:06:31.891Z,2.22
2018-12-01T23:09:01.747Z,2.14
2018-12-01T23:11:31.747Z,2.20
2018-12-01T23:14:01.838Z,2.27
2018-12-01T23:16:31.939Z,2.26
2018-12-01T23:19:01.809Z,2.21
2018-12-01T23:21:34.741Z,2.24
2018-12-01T23:24:05.543Z,2.23
2018-12-01T23:26:36.519Z,2.22
2018-12-01T23:29:07.733Z,2.37
2018-12-01T23:31:37.933Z,2.40
2018-12-01T23:34:07.867Z,2.43
2018-12-01T23:36:37.830Z,2.41
2018-12-01T23:39:08.065Z,2.41
2018-12-01T23:41:37.920Z,2.43
2018-12-01T23:44:09.657Z,2.39
2018-12-01T23:46:39.484Z,2.46
2018-12-01T23:49:09.548Z,2.38
2018-12-01T23:51:39.400Z,2.52
2018-12-01T23:54:09.482Z,2.57
2018-12-01T23:56:39.394Z,2.67
2018-12-01T23:59:09.218Z,2.61
